< Cyclone 202123 2022 Season
Cyclone 202207 (Ruby)
General InformationDetailed Track InformationTrack Information on Google MapsList of All Images || ResourceGoogle EarthGE AnimationAtom FeedGeoJSON
Detalied Best Track Wind (Time Zone = UTC)
Year Month Day Hour Lat. Long. Wind (kt) Gust (kt) Direc. of Major Storm Axis Radius of Major Storm Axis (nm) Radius of Minor Storm Axis (nm) Direc. of Major Gale Axis Radius of Major Gale Axis (nm) Radius of Minor Gale Axis (nm) Image
2021 12 9 00 -8.9 155.0 20 40 symmetric - - symmetric - - Image
2021 12 9 06 -9.0 155.2 20 45 symmetric - - symmetric - - Image
2021 12 9 12 -9.2 155.3 25 45 symmetric - - symmetric - - Image
2021 12 9 18 -9.3 155.3 25 45 symmetric - - symmetric - - Image
2021 12 10 00 -9.6 155.4 25 45 symmetric - - symmetric - - Image
2021 12 10 06 -9.7 155.6 25 45 symmetric - - symmetric - - Image
2021 12 10 12 -9.9 155.6 25 45 symmetric - - symmetric - - Image
2021 12 10 18 -10.2 155.7 25 45 symmetric - - symmetric - - Image
2021 12 11 00 -10.2 156.1 30 45 symmetric - - symmetric - - Image
2021 12 11 06 -10.8 156.4 30 45 symmetric - - symmetric - - Image
2021 12 11 12 -11.5 156.5 30 45 symmetric - - symmetric - - Image
2021 12 11 18 -12.8 156.9 30 45 symmetric - - symmetric - - Image
2021 12 12 00 -14.0 157.3 35 50 symmetric - - symmetric - - Image
2021 12 12 06 -14.6 157.7 40 55 symmetric - - symmetric - - Image
2021 12 12 12 -15.4 158.0 45 65 symmetric - - symmetric - - Image
2021 12 12 15 -15.8 158.4 50 70 symmetric - - symmetric - - Image
2021 12 12 18 -16.3 158.8 50 70 symmetric - - symmetric - - Image
2021 12 13 00 -17.3 159.7 60 85 symmetric - - symmetric - - Image
2021 12 13 06 -18.3 161.2 60 -1 symmetric - - symmetric - - Image
2021 12 13 12 -19.2 162.4 60 -1 symmetric - - symmetric - - Image
2021 12 13 18 -19.9 163.8 60 -1 symmetric - - symmetric - - Image
2021 12 14 00 -21.2 165.4 55 -1 symmetric - - symmetric - - Image
2021 12 14 04 -21.8 166.6 55 -1 symmetric - - symmetric - - Image
2021 12 14 06 -22.0 167.1 55 75 symmetric - - symmetric - - Image
2021 12 14 12 -23.2 169.3 50 -1 symmetric - - symmetric - - Image
2021 12 15 00 -25.1 172.0 50 70 symmetric - - symmetric - - Image
2021 12 15 06 -26.7 174.6 45 -1 symmetric - - symmetric - - Image
2021 12 15 12 -28.4 176.6 45 -1 symmetric - - symmetric - - Image
< Cyclone 202123 2022 Season

Help